sensor_id;sensor_type;location;lat;lon;timestamp;temperature;humidity
24800;DHT22;12897;50.812;4.430;2023-04-24T00:02:12;10.50;99.90
24800;DHT22;12897;50.812;4.430;2023-04-24T00:04:41;10.40;99.90
24800;DHT22;12897;50.812;4.430;2023-04-24T00:07:10;10.30;99.90
24800;DHT22;12897;50.812;4.430;2023-04-24T00:09:39;10.30;99.90
24800;DHT22;12897;50.812;4.430;2023-04-24T00:12:07;10.20;99.90
24800;DHT22;12897;50.812;4.430;2023-04-24T00:14:34;10.30;99.90
24800;DHT22;12897;50.812;4.430;2023-04-24T00:17:02;10.30;99.90
24800;DHT22;12897;50.812;4.430;2023-04-24T00:19:30;10.30;99.90
24800;DHT22;12897;50.812;4.430;2023-04-24T00:21:58;10.30;99.90
24800;DHT22;12897;50.812;4.430;2023-04-24T00:24:26;10.30;99.90
24800;DHT22;12897;50.812;4.430;2023-04-24T00:26:53;10.20;99.90
24800;DHT22;12897;50.812;4.430;2023-04-24T00:29:21;10.20;99.90
24800;DHT22;12897;50.812;4.430;2023-04-24T00:31:48;10.30;99.90
24800;DHT22;12897;50.812;4.430;2023-04-24T00:34:16;10.30;99.90
24800;DHT22;12897;50.812;4.430;2023-04-24T00:36:44;10.20;99.90
24800;DHT22;12897;50.812;4.430;2023-04-24T00:39:12;10.10;99.90
24800;DHT22;12897;50.812;4.430;2023-04-24T00:41:40;10.20;99.90
24800;DHT22;12897;50.812;4.430;2023-04-24T00:44:07;10.10;99.90
24800;DHT22;12897;50.812;4.430;2023-04-24T00:46:36;10.10;99.90
24800;DHT22;12897;50.812;4.430;2023-04-24T00:49:05;10.10;99.90
24800;DHT22;12897;50.812;4.430;2023-04-24T00:51:33;10.10;99.90
24800;DHT22;12897;50.812;4.430;2023-04-24T00:54:01;10.10;99.90
24800;DHT22;12897;50.812;4.430;2023-04-24T00:56:28;10.10;99.90
24800;DHT22;12897;50.812;4.430;2023-04-24T00:58:58;10.10;99.90
24800;DHT22;12897;50.812;4.430;2023-04-24T01:01:46;10.10;99.90
24800;DHT22;12897;50.812;4.430;2023-04-24T01:04:14;10.10;99.90
24800;DHT22;12897;50.812;4.430;2023-04-24T01:06:44;10.20;99.90
24800;DHT22;12897;50.812;4.430;2023-04-24T01:09:13;10.30;99.90
24800;DHT22;12897;50.812;4.430;2023-04-24T01:11:42;10.20;99.90
24800;DHT22;12897;50.812;4.430;2023-04-24T01:14:10;10.30;99.90
24800;DHT22;12897;50.812;4.430;2023-04-24T01:16:37;10.20;99.90
24800;DHT22;12897;50.812;4.430;2023-04-24T01:19:07;10.20;99.90
24800;DHT22;12897;50.812;4.430;2023-04-24T01:21:37;10.20;99.90
24800;DHT22;12897;50.812;4.430;2023-04-24T01:24:05;10.10;99.90
24800;DHT22;12897;50.812;4.430;2023-04-24T01:26:34;10.00;99.90
24800;DHT22;12897;50.812;4.430;2023-04-24T01:29:02;10.00;99.90
24800;DHT22;12897;50.812;4.430;2023-04-24T01:31:30;9.90;99.90
24800;DHT22;12897;50.812;4.430;2023-04-24T01:33:59;9.90;99.90
24800;DHT22;12897;50.812;4.430;2023-04-24T01:36:27;9.90;99.90
24800;DHT22;12897;50.812;4.430;2023-04-24T01:38:56;9.80;99.90
24800;DHT22;12897;50.812;4.430;2023-04-24T01:41:24;9.70;99.90
24800;DHT22;12897;50.812;4.430;2023-04-24T01:43:52;9.70;99.90
24800;DHT22;12897;50.812;4.430;2023-04-24T01:46:21;9.70;99.90
24800;DHT22;12897;50.812;4.430;2023-04-24T01:48:49;9.70;99.90
24800;DHT22;12897;50.812;4.430;2023-04-24T01:51:17;9.80;99.90
24800;DHT22;12897;50.812;4.430;2023-04-24T01:53:45;9.60;99.90
24800;DHT22;12897;50.812;4.430;2023-04-24T01:56:12;9.60;99.90
24800;DHT22;12897;50.812;4.430;2023-04-24T01:58:41;9.50;99.90
24800;DHT22;12897;50.812;4.430;2023-04-24T02:01:09;9.70;99.90
24800;DHT22;12897;50.812;4.430;2023-04-24T02:03:38;9.60;99.90
24800;DHT22;12897;50.812;4.430;2023-04-24T02:06:06;9.70;99.90
24800;DHT22;12897;50.812;4.430;2023-04-24T02:08:35;9.60;99.90
24800;DHT22;12897;50.812;4.430;2023-04-24T02:11:03;9.50;99.90
24800;DHT22;12897;50.812;4.430;2023-04-24T02:13:31;9.50;99.90
24800;DHT22;12897;50.812;4.430;2023-04-24T02:15:59;9.50;99.90
24800;DHT22;12897;50.812;4.430;2023-04-24T02:18:27;9.50;99.90
24800;DHT22;12897;50.812;4.430;2023-04-24T02:20:55;9.60;99.90
24800;DHT22;12897;50.812;4.430;2023-04-24T02:23:23;9.70;99.90
24800;DHT22;12897;50.812;4.430;2023-04-24T02:25:50;9.70;99.90
24800;DHT22;12897;50.812;4.430;2023-04-24T02:28:19;9.60;99.90
24800;DHT22;12897;50.812;4.430;2023-04-24T02:30:47;9.40;99.90
24800;DHT22;12897;50.812;4.430;2023-04-24T02:33:14;9.40;99.90
24800;DHT22;12897;50.812;4.430;2023-04-24T02:35:42;9.40;99.90
24800;DHT22;12897;50.812;4.430;2023-04-24T02:38:10;9.30;99.90
24800;DHT22;12897;50.812;4.430;2023-04-24T02:40:57;9.30;99.90
24800;DHT22;12897;50.812;4.430;2023-04-24T02:43:24;9.40;99.90
24800;DHT22;12897;50.812;4.430;2023-04-24T02:45:52;9.40;99.90
24800;DHT22;12897;50.812;4.430;2023-04-24T02:48:19;9.50;99.90
24800;DHT22;12897;50.812;4.430;2023-04-24T02:50:47;9.50;99.90
24800;DHT22;12897;50.812;4.430;2023-04-24T02:53:14;9.50;99.90
24800;DHT22;12897;50.812;4.430;2023-04-24T02:55:42;9.50;99.90
24800;DHT22;12897;50.812;4.430;2023-04-24T02:58:10;9.50;99.90
24800;DHT22;12897;50.812;4.430;2023-04-24T03:00:39;9.40;99.90
24800;DHT22;12897;50.812;4.430;2023-04-24T03:03:07;9.40;99.90
24800;DHT22;12897;50.812;4.430;2023-04-24T03:05:34;9.40;99.90
24800;DHT22;12897;50.812;4.430;2023-04-24T03:08:02;9.40;99.90
24800;DHT22;12897;50.812;4.430;2023-04-24T03:10:29;9.40;99.90
24800;DHT22;12897;50.812;4.430;2023-04-24T03:12:58;9.40;99.90
24800;DHT22;12897;50.812;4.430;2023-04-24T03:15:27;9.40;99.90
24800;DHT22;12897;50.812;4.430;2023-04-24T03:17:54;9.50;99.90
24800;DHT22;12897;50.812;4.430;2023-04-24T03:20:22;9.40;99.90
24800;DHT22;12897;50.812;4.430;2023-04-24T03:22:49;9.50;99.90
24800;DHT22;12897;50.812;4.430;2023-04-24T03:25:17;9.40;99.90
24800;DHT22;12897;50.812;4.430;2023-04-24T03:27:45;9.50;99.90
24800;DHT22;12897;50.812;4.430;2023-04-24T03:30:12;9.50;99.90
24800;DHT22;12897;50.812;4.430;2023-04-24T03:32:40;9.50;99.90
24800;DHT22;12897;50.812;4.430;2023-04-24T03:35:08;9.50;99.90
24800;DHT22;12897;50.812;4.430;2023-04-24T03:37:35;9.60;99.90
24800;DHT22;12897;50.812;4.430;2023-04-24T03:40:03;9.60;99.90
24800;DHT22;12897;50.812;4.430;2023-04-24T03:42:32;9.50;99.90
24800;DHT22;12897;50.812;4.430;2023-04-24T03:45:00;9.30;99.90
24800;DHT22;12897;50.812;4.430;2023-04-24T03:47:27;9.30;99.90
24800;DHT22;12897;50.812;4.430;2023-04-24T03:49:55;9.30;99.90
24800;DHT22;12897;50.812;4.430;2023-04-24T03:52:22;9.30;99.90
24800;DHT22;12897;50.812;4.430;2023-04-24T03:54:51;9.40;99.90
24800;DHT22;12897;50.812;4.430;2023-04-24T03:57:18;9.30;99.90
24800;DHT22;12897;50.812;4.430;2023-04-24T03:59:46;9.30;99.90
24800;DHT22;12897;50.812;4.430;2023-04-24T04:02:14;9.30;99.90
24800;DHT22;12897;50.812;4.430;2023-04-24T04:04:41;9.30;99.90
24800;DHT22;12897;50.812;4.430;2023-04-24T04:07:09;9.20;99.90
24800;DHT22;12897;50.812;4.430;2023-04-24T04:09:37;9.30;99.90
24800;DHT22;12897;50.812;4.430;2023-04-24T04:12:05;9.40;99.90
24800;DHT22;12897;50.812;4.430;2023-04-24T04:14:33;9.40;99.90
24800;DHT22;12897;50.812;4.430;2023-04-24T04:17:00;9.40;99.90
24800;DHT22;12897;50.812;4.430;2023-04-24T04:19:28;9.40;99.90
24800;DHT22;12897;50.812;4.430;2023-04-24T04:21:56;9.50;99.90
24800;DHT22;12897;50.812;4.430;2023-04-24T04:24:23;9.50;99.90
24800;DHT22;12897;50.812;4.430;2023-04-24T04:26:58;9.60;99.90
24800;DHT22;12897;50.812;4.430;2023-04-24T04:29:27;9.60;99.90
24800;DHT22;12897;50.812;4.430;2023-04-24T04:31:54;9.60;99.90
24800;DHT22;12897;50.812;4.430;2023-04-24T04:34:22;9.60;99.90
24800;DHT22;12897;50.812;4.430;2023-04-24T04:36:49;9.60;99.90
24800;DHT22;12897;50.812;4.430;2023-04-24T04:39:17;9.60;99.90
24800;DHT22;12897;50.812;4.430;2023-04-24T04:41:45;9.60;99.90
24800;DHT22;12897;50.812;4.430;2023-04-24T04:44:14;9.50;99.90
24800;DHT22;12897;50.812;4.430;2023-04-24T04:46:42;9.60;99.90
24800;DHT22;12897;50.812;4.430;2023-04-24T04:49:10;9.60;99.90
24800;DHT22;12897;50.812;4.430;2023-04-24T04:51:38;9.60;99.90
24800;DHT22;12897;50.812;4.430;2023-04-24T04:54:05;9.50;99.90
24800;DHT22;12897;50.812;4.430;2023-04-24T04:56:34;9.40;99.90
24800;DHT22;12897;50.812;4.430;2023-04-24T04:59:01;9.30;99.90
24800;DHT22;12897;50.812;4.430;2023-04-24T05:01:29;9.40;99.90
24800;DHT22;12897;50.812;4.430;2023-04-24T05:03:57;9.20;99.90
24800;DHT22;12897;50.812;4.430;2023-04-24T05:06:24;9.30;99.90
24800;DHT22;12897;50.812;4.430;2023-04-24T05:08:52;9.30;99.90
24800;DHT22;12897;50.812;4.430;2023-04-24T05:11:21;9.40;99.90
24800;DHT22;12897;50.812;4.430;2023-04-24T05:13:49;9.40;99.90
24800;DHT22;12897;50.812;4.430;2023-04-24T05:16:18;9.50;99.90
24800;DHT22;12897;50.812;4.430;2023-04-24T05:18:46;9.40;99.90
24800;DHT22;12897;50.812;4.430;2023-04-24T05:21:14;9.40;99.90
24800;DHT22;12897;50.812;4.430;2023-04-24T05:23:41;9.40;99.90
24800;DHT22;12897;50.812;4.430;2023-04-24T05:26:09;9.30;99.90
24800;DHT22;12897;50.812;4.430;2023-04-24T05:28:37;9.30;99.90
24800;DHT22;12897;50.812;4.430;2023-04-24T05:31:04;9.30;99.90
24800;DHT22;12897;50.812;4.430;2023-04-24T05:33:33;9.30;99.90
24800;DHT22;12897;50.812;4.430;2023-04-24T05:36:00;9.30;99.90
24800;DHT22;12897;50.812;4.430;2023-04-24T05:38:28;9.20;99.90
24800;DHT22;12897;50.812;4.430;2023-04-24T05:40:55;9.30;99.90
24800;DHT22;12897;50.812;4.430;2023-04-24T05:43:23;9.30;99.90
24800;DHT22;12897;50.812;4.430;2023-04-24T05:45:51;9.30;99.90
24800;DHT22;12897;50.812;4.430;2023-04-24T05:48:25;9.30;99.90
24800;DHT22;12897;50.812;4.430;2023-04-24T05:50:53;9.30;99.90
24800;DHT22;12897;50.812;4.430;2023-04-24T05:53:20;9.30;99.90
24800;DHT22;12897;50.812;4.430;2023-04-24T05:55:48;9.30;99.90
24800;DHT22;12897;50.812;4.430;2023-04-24T05:58:16;9.30;99.90
24800;DHT22;12897;50.812;4.430;2023-04-24T06:00:44;9.30;99.90
24800;DHT22;12897;50.812;4.430;2023-04-24T06:03:13;9.50;99.90
24800;DHT22;12897;50.812;4.430;2023-04-24T06:05:40;9.40;99.90
24800;DHT22;12897;50.812;4.430;2023-04-24T06:08:08;9.40;99.90
24800;DHT22;12897;50.812;4.430;2023-04-24T06:10:36;9.30;99.90
24800;DHT22;12897;50.812;4.430;2023-04-24T06:13:04;9.30;99.90
24800;DHT22;12897;50.812;4.430;2023-04-24T06:15:32;9.30;99.90
24800;DHT22;12897;50.812;4.430;2023-04-24T06:17:59;9.30;99.90
24800;DHT22;12897;50.812;4.430;2023-04-24T06:20:27;9.30;99.90
24800;DHT22;12897;50.812;4.430;2023-04-24T06:22:54;9.20;99.90
24800;DHT22;12897;50.812;4.430;2023-04-24T06:25:24;9.20;99.90
24800;DHT22;12897;50.812;4.430;2023-04-24T06:27:51;9.10;99.90
24800;DHT22;12897;50.812;4.430;2023-04-24T06:30:19;9.10;99.90
24800;DHT22;12897;50.812;4.430;2023-04-24T06:32:46;9.20;99.90
24800;DHT22;12897;50.812;4.430;2023-04-24T06:35:14;9.30;99.90
24800;DHT22;12897;50.812;4.430;2023-04-24T06:37:42;9.30;99.90
24800;DHT22;12897;50.812;4.430;2023-04-24T06:40:10;9.30;99.90
24800;DHT22;12897;50.812;4.430;2023-04-24T06:42:38;9.30;99.90
24800;DHT22;12897;50.812;4.430;2023-04-24T06:45:06;9.40;99.90
24800;DHT22;12897;50.812;4.430;2023-04-24T06:47:33;9.40;99.90
24800;DHT22;12897;50.812;4.430;2023-04-24T06:50:01;9.40;99.90
24800;DHT22;12897;50.812;4.430;2023-04-24T06:52:29;9.40;99.90
24800;DHT22;12897;50.812;4.430;2023-04-24T06:55:02;9.50;99.90
24800;DHT22;12897;50.812;4.430;2023-04-24T06:57:30;9.50;99.90
24800;DHT22;12897;50.812;4.430;2023-04-24T06:59:57;9.60;99.90
24800;DHT22;12897;50.812;4.430;2023-04-24T07:02:26;9.80;99.90
24800;DHT22;12897;50.812;4.430;2023-04-24T07:04:54;9.80;99.90
24800;DHT22;12897;50.812;4.430;2023-04-24T07:07:23;9.80;99.90
24800;DHT22;12897;50.812;4.430;2023-04-24T07:09:52;9.80;99.90
24800;DHT22;12897;50.812;4.430;2023-04-24T07:12:20;9.90;99.90
24800;DHT22;12897;50.812;4.430;2023-04-24T07:14:49;9.90;99.90
24800;DHT22;12897;50.812;4.430;2023-04-24T07:17:17;9.90;99.90
24800;DHT22;12897;50.812;4.430;2023-04-24T07:19:45;9.80;99.90
24800;DHT22;12897;50.812;4.430;2023-04-24T07:22:12;9.70;99.90
24800;DHT22;12897;50.812;4.430;2023-04-24T07:24:42;9.70;99.90
24800;DHT22;12897;50.812;4.430;2023-04-24T07:27:16;9.70;99.90
24800;DHT22;12897;50.812;4.430;2023-04-24T07:29:43;9.90;99.90
24800;DHT22;12897;50.812;4.430;2023-04-24T07:32:11;9.90;99.90
24800;DHT22;12897;50.812;4.430;2023-04-24T07:34:38;10.10;99.90
24800;DHT22;12897;50.812;4.430;2023-04-24T07:37:07;10.30;99.90
24800;DHT22;12897;50.812;4.430;2023-04-24T07:39:36;10.40;99.90
24800;DHT22;12897;50.812;4.430;2023-04-24T07:42:04;10.50;99.90
24800;DHT22;12897;50.812;4.430;2023-04-24T07:44:31;10.50;99.90
24800;DHT22;12897;50.812;4.430;2023-04-24T07:46:59;10.60;99.90
24800;DHT22;12897;50.812;4.430;2023-04-24T07:49:27;10.60;99.90
24800;DHT22;12897;50.812;4.430;2023-04-24T07:51:54;10.60;99.90
24800;DHT22;12897;50.812;4.430;2023-04-24T07:54:22;10.50;99.90
24800;DHT22;12897;50.812;4.430;2023-04-24T07:56:50;10.40;99.90
24800;DHT22;12897;50.812;4.430;2023-04-24T07:59:19;10.50;99.90
24800;DHT22;12897;50.812;4.430;2023-04-24T08:01:46;10.60;99.90
24800;DHT22;12897;50.812;4.430;2023-04-24T08:04:20;10.60;99.90
24800;DHT22;12897;50.812;4.430;2023-04-24T08:06:50;10.50;99.90
24800;DHT22;12897;50.812;4.430;2023-04-24T08:09:19;10.40;99.90
24800;DHT22;12897;50.812;4.430;2023-04-24T08:11:47;10.50;99.90
24800;DHT22;12897;50.812;4.430;2023-04-24T08:14:15;10.60;99.90
24800;DHT22;12897;50.812;4.430;2023-04-24T08:16:42;10.60;99.90
24800;DHT22;12897;50.812;4.430;2023-04-24T08:19:10;10.70;99.90
24800;DHT22;12897;50.812;4.430;2023-04-24T08:21:46;10.60;99.90
24800;DHT22;12897;50.812;4.430;2023-04-24T08:24:15;10.60;99.90
24800;DHT22;12897;50.812;4.430;2023-04-24T08:26:43;10.70;99.90
24800;DHT22;12897;50.812;4.430;2023-04-24T08:29:12;10.60;99.90
24800;DHT22;12897;50.812;4.430;2023-04-24T08:31:39;10.60;99.90
24800;DHT22;12897;50.812;4.430;2023-04-24T08:34:10;10.70;99.90
24800;DHT22;12897;50.812;4.430;2023-04-24T08:36:42;10.90;99.90
24800;DHT22;12897;50.812;4.430;2023-04-24T08:39:12;10.90;99.90
24800;DHT22;12897;50.812;4.430;2023-04-24T08:41:42;11.10;99.90
24800;DHT22;12897;50.812;4.430;2023-04-24T08:44:13;11.00;99.90
24800;DHT22;12897;50.812;4.430;2023-04-24T08:46:44;11.10;99.90
24800;DHT22;12897;50.812;4.430;2023-04-24T08:49:14;11.10;99.90
24800;DHT22;12897;50.812;4.430;2023-04-24T08:51:46;11.00;99.90
24800;DHT22;12897;50.812;4.430;2023-04-24T08:54:14;11.00;99.90
24800;DHT22;12897;50.812;4.430;2023-04-24T08:56:44;11.20;99.90
24800;DHT22;12897;50.812;4.430;2023-04-24T08:59:15;11.50;99.90
24800;DHT22;12897;50.812;4.430;2023-04-24T09:01:43;11.60;99.90
24800;DHT22;12897;50.812;4.430;2023-04-24T09:04:12;11.50;99.90
24800;DHT22;12897;50.812;4.430;2023-04-24T09:06:42;11.50;99.90
24800;DHT22;12897;50.812;4.430;2023-04-24T09:09:11;11.60;99.90
24800;DHT22;12897;50.812;4.430;2023-04-24T09:11:39;11.90;99.90
24800;DHT22;12897;50.812;4.430;2023-04-24T09:14:09;11.90;99.90
24800;DHT22;12897;50.812;4.430;2023-04-24T09:16:38;11.80;99.90
24800;DHT22;12897;50.812;4.430;2023-04-24T09:19:05;11.90;99.90
24800;DHT22;12897;50.812;4.430;2023-04-24T09:21:34;12.00;99.90
24800;DHT22;12897;50.812;4.430;2023-04-24T09:24:05;12.10;99.90
24800;DHT22;12897;50.812;4.430;2023-04-24T09:26:35;12.20;99.90
24800;DHT22;12897;50.812;4.430;2023-04-24T09:29:04;12.00;99.90
24800;DHT22;12897;50.812;4.430;2023-04-24T09:31:33;12.00;99.90
24800;DHT22;12897;50.812;4.430;2023-04-24T09:34:02;11.70;99.90
24800;DHT22;12897;50.812;4.430;2023-04-24T09:36:37;11.60;99.90
24800;DHT22;12897;50.812;4.430;2023-04-24T09:39:07;11.70;99.90
24800;DHT22;12897;50.812;4.430;2023-04-24T09:41:48;11.70;99.90
24800;DHT22;12897;50.812;4.430;2023-04-24T09:44:18;11.50;99.90
24800;DHT22;12897;50.812;4.430;2023-04-24T09:46:53;11.60;99.90
24800;DHT22;12897;50.812;4.430;2023-04-24T09:49:23;11.90;99.90
24800;DHT22;12897;50.812;4.430;2023-04-24T09:51:52;12.10;99.90
24800;DHT22;12897;50.812;4.430;2023-04-24T09:54:21;12.30;99.90
24800;DHT22;12897;50.812;4.430;2023-04-24T09:56:50;12.40;99.90
24800;DHT22;12897;50.812;4.430;2023-04-24T09:59:23;12.30;99.90
24800;DHT22;12897;50.812;4.430;2023-04-24T10:01:55;12.20;99.90
24800;DHT22;12897;50.812;4.430;2023-04-24T10:04:25;12.00;99.90
24800;DHT22;12897;50.812;4.430;2023-04-24T10:06:55;11.90;99.90
24800;DHT22;12897;50.812;4.430;2023-04-24T10:09:29;11.90;99.90
24800;DHT22;12897;50.812;4.430;2023-04-24T10:11:56;12.00;99.90
24800;DHT22;12897;50.812;4.430;2023-04-24T10:14:25;12.10;99.90
24800;DHT22;12897;50.812;4.430;2023-04-24T10:16:55;12.10;99.90
24800;DHT22;12897;50.812;4.430;2023-04-24T10:19:26;12.10;99.90
24800;DHT22;12897;50.812;4.430;2023-04-24T10:21:54;12.20;99.90
24800;DHT22;12897;50.812;4.430;2023-04-24T10:24:22;12.20;99.90
24800;DHT22;12897;50.812;4.430;2023-04-24T10:26:52;12.20;99.90
24800;DHT22;12897;50.812;4.430;2023-04-24T10:29:27;12.10;99.90
24800;DHT22;12897;50.812;4.430;2023-04-24T10:32:04;12.20;99.90
24800;DHT22;12897;50.812;4.430;2023-04-24T10:34:31;12.10;99.90
24800;DHT22;12897;50.812;4.430;2023-04-24T10:37:02;12.10;99.90
24800;DHT22;12897;50.812;4.430;2023-04-24T10:39:31;12.00;99.90
24800;DHT22;12897;50.812;4.430;2023-04-24T10:42:04;12.00;99.90
24800;DHT22;12897;50.812;4.430;2023-04-24T10:44:37;12.00;99.90
24800;DHT22;12897;50.812;4.430;2023-04-24T10:47:13;12.00;99.90
24800;DHT22;12897;50.812;4.430;2023-04-24T10:49:41;11.90;99.90
24800;DHT22;12897;50.812;4.430;2023-04-24T10:52:09;12.00;99.90
24800;DHT22;12897;50.812;4.430;2023-04-24T10:54:45;12.10;99.90
24800;DHT22;12897;50.812;4.430;2023-04-24T11:02:41;12.40;99.90
24800;DHT22;12897;50.812;4.430;2023-04-24T11:10:47;12.40;99.90
24800;DHT22;12897;50.812;4.430;2023-04-24T11:13:17;12.50;99.90
24800;DHT22;12897;50.812;4.430;2023-04-24T11:18:39;13.00;99.90
24800;DHT22;12897;50.812;4.430;2023-04-24T11:21:19;13.20;99.90
24800;DHT22;12897;50.812;4.430;2023-04-24T11:23:47;13.20;99.90
24800;DHT22;12897;50.812;4.430;2023-04-24T11:26:21;13.20;99.90
24800;DHT22;12897;50.812;4.430;2023-04-24T11:29:06;13.00;99.90
24800;DHT22;12897;50.812;4.430;2023-04-24T11:31:45;13.00;99.90
24800;DHT22;12897;50.812;4.430;2023-04-24T11:34:15;13.00;99.90
24800;DHT22;12897;50.812;4.430;2023-04-24T11:36:45;12.90;99.90
24800;DHT22;12897;50.812;4.430;2023-04-24T11:39:15;12.80;99.90
24800;DHT22;12897;50.812;4.430;2023-04-24T11:41:43;12.90;99.90
24800;DHT22;12897;50.812;4.430;2023-04-24T11:44:10;12.90;99.90
24800;DHT22;12897;50.812;4.430;2023-04-24T11:46:44;13.00;99.90
24800;DHT22;12897;50.812;4.430;2023-04-24T11:49:13;12.90;99.90
24800;DHT22;12897;50.812;4.430;2023-04-24T11:51:41;12.90;99.90
24800;DHT22;12897;50.812;4.430;2023-04-24T11:54:09;12.90;99.90
24800;DHT22;12897;50.812;4.430;2023-04-24T11:56:37;12.80;99.90
24800;DHT22;12897;50.812;4.430;2023-04-24T11:59:05;13.10;99.90
24800;DHT22;12897;50.812;4.430;2023-04-24T12:01:45;13.60;99.90
24800;DHT22;12897;50.812;4.430;2023-04-24T12:04:16;13.30;99.90
24800;DHT22;12897;50.812;4.430;2023-04-24T12:09:41;13.30;99.90
24800;DHT22;12897;50.812;4.430;2023-04-24T12:12:09;13.40;99.90
24800;DHT22;12897;50.812;4.430;2023-04-24T12:14:57;13.40;99.90
24800;DHT22;12897;50.812;4.430;2023-04-24T12:17:30;13.50;99.90
24800;DHT22;12897;50.812;4.430;2023-04-24T12:20:03;13.70;99.90
24800;DHT22;12897;50.812;4.430;2023-04-24T12:22:49;13.50;99.90
24800;DHT22;12897;50.812;4.430;2023-04-24T12:25:18;13.50;99.90
24800;DHT22;12897;50.812;4.430;2023-04-24T12:27:52;13.60;99.90
24800;DHT22;12897;50.812;4.430;2023-04-24T12:30:18;13.80;99.90
24800;DHT22;12897;50.812;4.430;2023-04-24T12:32:48;13.50;99.90
24800;DHT22;12897;50.812;4.430;2023-04-24T12:35:23;13.40;99.90
24800;DHT22;12897;50.812;4.430;2023-04-24T12:37:50;13.30;99.90
24800;DHT22;12897;50.812;4.430;2023-04-24T12:40:21;13.00;99.90
24800;DHT22;12897;50.812;4.430;2023-04-24T12:42:51;13.10;99.90
24800;DHT22;12897;50.812;4.430;2023-04-24T12:45:19;13.10;99.90
24800;DHT22;12897;50.812;4.430;2023-04-24T12:47:48;13.20;99.90
24800;DHT22;12897;50.812;4.430;2023-04-24T12:50:16;13.10;99.90
24800;DHT22;12897;50.812;4.430;2023-04-24T12:52:49;13.10;99.90
24800;DHT22;12897;50.812;4.430;2023-04-24T12:55:18;13.10;99.90
24800;DHT22;12897;50.812;4.430;2023-04-24T12:57:46;13.40;99.90
24800;DHT22;12897;50.812;4.430;2023-04-24T13:00:14;13.50;99.90
24800;DHT22;12897;50.812;4.430;2023-04-24T13:02:45;13.80;99.90
24800;DHT22;12897;50.812;4.430;2023-04-24T13:05:12;14.00;99.90
24800;DHT22;12897;50.812;4.430;2023-04-24T13:07:41;14.00;99.90
24800;DHT22;12897;50.812;4.430;2023-04-24T13:10:09;13.90;99.90
24800;DHT22;12897;50.812;4.430;2023-04-24T13:12:38;13.40;99.90
24800;DHT22;12897;50.812;4.430;2023-04-24T13:15:07;13.30;99.90
24800;DHT22;12897;50.812;4.430;2023-04-24T13:17:36;13.00;99.90
24800;DHT22;12897;50.812;4.430;2023-04-24T13:20:05;12.90;99.90
24800;DHT22;12897;50.812;4.430;2023-04-24T13:22:34;12.90;99.90
24800;DHT22;12897;50.812;4.430;2023-04-24T13:25:03;12.70;99.90
24800;DHT22;12897;50.812;4.430;2023-04-24T13:27:32;12.70;99.90
24800;DHT22;12897;50.812;4.430;2023-04-24T13:30:08;13.00;99.90
24800;DHT22;12897;50.812;4.430;2023-04-24T13:32:35;13.30;99.90
24800;DHT22;12897;50.812;4.430;2023-04-24T13:35:03;13.80;99.90
24800;DHT22;12897;50.812;4.430;2023-04-24T13:37:31;14.10;99.90
24800;DHT22;12897;50.812;4.430;2023-04-24T13:39:59;14.30;99.90
24800;DHT22;12897;50.812;4.430;2023-04-24T13:42:27;14.30;99.90
24800;DHT22;12897;50.812;4.430;2023-04-24T13:44:56;14.50;99.90
24800;DHT22;12897;50.812;4.430;2023-04-24T13:47:23;14.30;99.90
24800;DHT22;12897;50.812;4.430;2023-04-24T13:49:51;14.20;99.90
24800;DHT22;12897;50.812;4.430;2023-04-24T13:52:20;14.20;99.90
24800;DHT22;12897;50.812;4.430;2023-04-24T13:54:48;14.00;99.90
24800;DHT22;12897;50.812;4.430;2023-04-24T13:57:15;14.00;99.90
24800;DHT22;12897;50.812;4.430;2023-04-24T13:59:43;13.90;99.90
24800;DHT22;12897;50.812;4.430;2023-04-24T14:02:11;13.80;99.90
24800;DHT22;12897;50.812;4.430;2023-04-24T14:04:41;13.70;99.90
24800;DHT22;12897;50.812;4.430;2023-04-24T14:07:11;13.70;99.90
24800;DHT22;12897;50.812;4.430;2023-04-24T14:09:41;13.80;99.90
24800;DHT22;12897;50.812;4.430;2023-04-24T14:12:09;13.50;99.90
24800;DHT22;12897;50.812;4.430;2023-04-24T14:14:36;13.70;99.90
24800;DHT22;12897;50.812;4.430;2023-04-24T14:17:04;13.80;99.90
24800;DHT22;12897;50.812;4.430;2023-04-24T14:19:33;13.80;99.90
24800;DHT22;12897;50.812;4.430;2023-04-24T14:22:01;13.90;99.90
24800;DHT22;12897;50.812;4.430;2023-04-24T14:24:28;13.90;99.90
24800;DHT22;12897;50.812;4.430;2023-04-24T14:26:57;13.70;99.90
24800;DHT22;12897;50.812;4.430;2023-04-24T14:29:29;13.60;99.90
24800;DHT22;12897;50.812;4.430;2023-04-24T14:32:01;13.50;99.90
24800;DHT22;12897;50.812;4.430;2023-04-24T14:34:29;13.40;99.90
24800;DHT22;12897;50.812;4.430;2023-04-24T14:37:00;13.40;99.90
24800;DHT22;12897;50.812;4.430;2023-04-24T14:39:28;13.60;99.90
24800;DHT22;12897;50.812;4.430;2023-04-24T14:41:56;13.70;99.90
24800;DHT22;12897;50.812;4.430;2023-04-24T14:44:24;13.70;99.90
24800;DHT22;12897;50.812;4.430;2023-04-24T14:46:51;13.50;99.90
24800;DHT22;12897;50.812;4.430;2023-04-24T14:49:22;13.60;99.90
24800;DHT22;12897;50.812;4.430;2023-04-24T14:51:51;13.70;99.90
24800;DHT22;12897;50.812;4.430;2023-04-24T14:54:19;13.60;99.90
24800;DHT22;12897;50.812;4.430;2023-04-24T14:56:48;13.50;99.90
24800;DHT22;12897;50.812;4.430;2023-04-24T14:59:19;13.40;99.90
24800;DHT22;12897;50.812;4.430;2023-04-24T15:01:47;13.40;99.90
24800;DHT22;12897;50.812;4.430;2023-04-24T15:04:14;13.50;99.90
24800;DHT22;12897;50.812;4.430;2023-04-24T15:06:42;13.60;99.90
24800;DHT22;12897;50.812;4.430;2023-04-24T15:09:11;13.50;99.90
24800;DHT22;12897;50.812;4.430;2023-04-24T15:11:40;13.50;99.90
24800;DHT22;12897;50.812;4.430;2023-04-24T15:14:09;13.50;99.90
24800;DHT22;12897;50.812;4.430;2023-04-24T15:16:42;13.70;99.90
24800;DHT22;12897;50.812;4.430;2023-04-24T15:19:07;13.70;99.90
24800;DHT22;12897;50.812;4.430;2023-04-24T15:21:37;13.50;99.90
24800;DHT22;12897;50.812;4.430;2023-04-24T15:24:06;13.40;99.90
24800;DHT22;12897;50.812;4.430;2023-04-24T15:26:34;13.30;99.90
24800;DHT22;12897;50.812;4.430;2023-04-24T15:29:03;13.40;99.90
24800;DHT22;12897;50.812;4.430;2023-04-24T15:31:31;13.30;99.90
24800;DHT22;12897;50.812;4.430;2023-04-24T15:33:58;13.30;99.90
24800;DHT22;12897;50.812;4.430;2023-04-24T15:36:26;13.40;99.90
24800;DHT22;12897;50.812;4.430;2023-04-24T15:38:54;13.50;99.90
24800;DHT22;12897;50.812;4.430;2023-04-24T15:41:21;13.50;99.90
24800;DHT22;12897;50.812;4.430;2023-04-24T15:43:49;13.50;99.90
24800;DHT22;12897;50.812;4.430;2023-04-24T15:46:17;13.30;99.90
24800;DHT22;12897;50.812;4.430;2023-04-24T15:48:45;13.30;99.90
24800;DHT22;12897;50.812;4.430;2023-04-24T15:51:13;13.20;99.90
24800;DHT22;12897;50.812;4.430;2023-04-24T15:53:43;13.30;99.90
24800;DHT22;12897;50.812;4.430;2023-04-24T15:56:12;13.20;99.90
24800;DHT22;12897;50.812;4.430;2023-04-24T15:58:40;13.20;99.90
24800;DHT22;12897;50.812;4.430;2023-04-24T16:01:09;13.20;99.90
24800;DHT22;12897;50.812;4.430;2023-04-24T16:03:38;13.00;99.90
24800;DHT22;12897;50.812;4.430;2023-04-24T16:06:06;13.00;99.90